createdAt,value
2017-11-06T00:02:32.383Z,101116.69
2017-11-06T00:05:07.241Z,101117.33
2017-11-06T00:07:42.171Z,101122.91
2017-11-06T00:10:17.000Z,101126.19
2017-11-06T00:12:52.244Z,101126.02
2017-11-06T00:15:27.099Z,101133.73
2017-11-06T00:18:02.204Z,101138.13
2017-11-06T00:20:37.452Z,101145.70
2017-11-06T00:23:12.532Z,101139.72
2017-11-06T00:25:46.955Z,101146.34
2017-11-06T00:28:21.668Z,101151.11
2017-11-06T00:30:56.400Z,101151.78
2017-11-06T00:33:31.127Z,101153.05
2017-11-06T00:36:05.740Z,101152.30
2017-11-06T00:38:40.751Z,101152.88
2017-11-06T00:41:15.679Z,101156.62
2017-11-06T00:43:50.435Z,101160.62
2017-11-06T00:46:25.659Z,101166.42
2017-11-06T00:49:02.388Z,101160.81
2017-11-06T00:51:37.439Z,101165.93
2017-11-06T00:54:12.172Z,101176.67
2017-11-06T00:56:47.524Z,101174.67
2017-11-06T00:59:22.260Z,101183.30
2017-11-06T01:01:56.688Z,101193.63
2017-11-06T01:04:31.763Z,101200.66
2017-11-06T01:07:06.489Z,101191.76
2017-11-06T01:09:41.675Z,101213.78
2017-11-06T01:12:16.492Z,101214.28
2017-11-06T01:14:51.783Z,101214.02
2017-11-06T01:17:26.600Z,101216.32
2017-11-06T01:20:01.544Z,101209.92
2017-11-06T01:22:36.432Z,101214.81
2017-11-06T01:25:11.198Z,101209.56
2017-11-06T01:27:46.107Z,101208.45
2017-11-06T01:30:21.224Z,101212.00
2017-11-06T01:32:55.809Z,101216.32
2017-11-06T01:35:30.068Z,101223.39
2017-11-06T01:38:05.246Z,101221.17
2017-11-06T01:40:40.131Z,101219.97
2017-11-06T01:43:14.612Z,101220.05
2017-11-06T01:45:49.847Z,101230.78
2017-11-06T01:48:24.559Z,101229.17
2017-11-06T01:50:59.301Z,101228.51
2017-11-06T01:53:34.272Z,101222.13
2017-11-06T01:56:09.202Z,101221.78
2017-11-06T01:58:44.928Z,101223.55
2017-11-06T02:01:19.362Z,101221.91
2017-11-06T02:03:54.358Z,101224.45
2017-11-06T02:06:28.452Z,101225.10
2017-11-06T02:09:03.172Z,101228.80
2017-11-06T02:11:38.389Z,101226.25
2017-11-06T02:14:12.773Z,101225.57
2017-11-06T02:16:47.947Z,101226.06
2017-11-06T02:19:22.956Z,101231.16
2017-11-06T02:21:57.503Z,101247.61
2017-11-06T02:24:32.615Z,101237.02
2017-11-06T02:27:06.927Z,101243.73
2017-11-06T02:29:41.847Z,101246.94
2017-11-06T02:32:16.667Z,101256.80
2017-11-06T02:34:51.636Z,101252.67
2017-11-06T02:37:26.528Z,101258.17
2017-11-06T02:40:01.356Z,101266.01
2017-11-06T02:42:36.063Z,101258.45
2017-11-06T02:45:10.963Z,101260.03
2017-11-06T02:47:45.703Z,101264.77
2017-11-06T02:50:20.546Z,101268.45
2017-11-06T02:52:55.456Z,101268.48
2017-11-06T02:55:30.204Z,101272.85
2017-11-06T02:58:04.669Z,101272.01
2017-11-06T03:00:39.451Z,101279.80
2017-11-06T03:03:14.419Z,101288.69
2017-11-06T03:05:49.149Z,101285.86
2017-11-06T03:08:24.076Z,101292.20
2017-11-06T03:10:59.372Z,101296.73
2017-11-06T03:13:34.522Z,101304.20
2017-11-06T03:16:09.419Z,101303.23
2017-11-06T03:18:44.271Z,101274.34
2017-11-06T03:21:19.263Z,101302.88
2017-11-06T03:23:54.564Z,101307.52
2017-11-06T03:26:29.753Z,101263.06
2017-11-06T03:29:05.339Z,101313.50
2017-11-06T03:31:40.140Z,101320.92
2017-11-06T03:34:14.955Z,101318.30
2017-11-06T03:36:49.737Z,101320.92
2017-11-06T03:39:25.320Z,101321.78
2017-11-06T03:41:59.931Z,101328.52
2017-11-06T03:44:35.072Z,101337.64
2017-11-06T03:47:09.712Z,101344.64
2017-11-06T03:49:44.552Z,101339.27
2017-11-06T03:52:19.275Z,101348.59
2017-11-06T03:54:54.088Z,101351.38
2017-11-06T03:57:28.931Z,101354.38
2017-11-06T04:00:03.831Z,101352.70
2017-11-06T04:02:38.884Z,101359.09
2017-11-06T04:05:13.699Z,101353.91
2017-11-06T04:07:49.366Z,101354.23
2017-11-06T04:10:24.467Z,101370.39
2017-11-06T04:12:59.292Z,101371.24
2017-11-06T04:15:34.400Z,101372.95
2017-11-06T04:18:09.277Z,101386.02
2017-11-06T04:20:43.727Z,101382.05
2017-11-06T04:23:18.775Z,101387.61
2017-11-06T04:25:54.040Z,101389.75
2017-11-06T04:28:29.280Z,101392.02
2017-11-06T04:31:03.749Z,101392.97
2017-11-06T04:33:38.743Z,101399.52
2017-11-06T04:36:13.552Z,101400.38
2017-11-06T04:38:48.332Z,101403.81
2017-11-06T04:41:22.811Z,101405.19
2017-11-06T04:43:57.259Z,101417.59
2017-11-06T04:46:31.817Z,101421.92
2017-11-06T04:49:06.779Z,101426.84
2017-11-06T04:51:41.668Z,101425.55
2017-11-06T04:54:16.516Z,101433.95
2017-11-06T04:56:51.611Z,101435.40
2017-11-06T04:59:26.483Z,101433.22
2017-11-06T05:02:01.607Z,101449.91
2017-11-06T05:04:36.513Z,101452.17
2017-11-06T05:07:11.420Z,101455.43
2017-11-06T05:09:46.336Z,101454.28
2017-11-06T05:12:21.492Z,101454.69
2017-11-06T05:14:56.281Z,101461.38
2017-11-06T05:17:31.362Z,101455.28
2017-11-06T05:20:06.588Z,101468.49
2017-11-06T05:22:41.720Z,101468.49
2017-11-06T05:25:16.632Z,101481.71
2017-11-06T05:27:51.811Z,101482.08
2017-11-06T05:30:27.516Z,101484.05
2017-11-06T05:33:02.174Z,101487.26
2017-11-06T05:35:37.239Z,101502.36
2017-11-06T05:38:11.876Z,101499.62
2017-11-06T05:40:46.583Z,101507.89
2017-11-06T05:43:21.793Z,101505.84
2017-11-06T05:45:56.929Z,101504.62
2017-11-06T05:48:32.123Z,101505.58
2017-11-06T05:51:06.643Z,101499.88
2017-11-06T05:53:41.315Z,101511.94
2017-11-06T05:56:16.233Z,101520.72
2017-11-06T05:58:50.953Z,101529.64
2017-11-06T06:01:26.016Z,101522.12
2017-11-06T06:04:00.999Z,101528.45
2017-11-06T06:06:35.904Z,101523.22
2017-11-06T06:09:10.733Z,101531.22
2017-11-06T06:11:45.616Z,101533.77
2017-11-06T06:14:22.224Z,101533.33
2017-11-06T06:16:57.686Z,101534.73
2017-11-06T06:19:32.247Z,101548.23
2017-11-06T06:22:07.024Z,101551.45
2017-11-06T06:24:41.424Z,101561.14
2017-11-06T06:27:16.804Z,101558.41
2017-11-06T06:29:51.769Z,101562.52
2017-11-06T06:32:26.597Z,101563.50
2017-11-06T06:35:01.640Z,101569.14
2017-11-06T06:37:36.622Z,101567.60
2017-11-06T06:40:11.634Z,101571.67
2017-11-06T06:42:46.500Z,101577.03
2017-11-06T06:45:21.256Z,101576.11
2017-11-06T06:47:56.563Z,101581.81
2017-11-06T06:50:30.959Z,101578.67
2017-11-06T06:53:05.904Z,101588.84
2017-11-06T06:55:40.664Z,101585.77
2017-11-06T06:58:15.923Z,101598.14
2017-11-06T07:00:50.975Z,101591.07
2017-11-06T07:03:25.620Z,101596.84
2017-11-06T07:06:00.595Z,101599.30
2017-11-06T07:08:35.836Z,101608.36
2017-11-06T07:11:10.587Z,101608.02
2017-11-06T07:13:45.060Z,101618.09
2017-11-06T07:16:20.010Z,101624.73
2017-11-06T07:18:54.640Z,101642.02
2017-11-06T07:21:29.464Z,101632.42
2017-11-06T07:24:04.320Z,101638.20
2017-11-06T07:26:39.374Z,101646.70
2017-11-06T07:29:14.294Z,101648.09
2017-11-06T07:31:48.861Z,101651.38
2017-11-06T07:34:23.945Z,101653.47
2017-11-06T07:36:58.864Z,101654.27
2017-11-06T07:39:33.524Z,101664.73
2017-11-06T07:42:08.756Z,101665.04
2017-11-06T07:44:43.763Z,101668.63
2017-11-06T07:47:18.772Z,101673.64
2017-11-06T07:49:53.579Z,101682.13
2017-11-06T07:52:28.733Z,101685.38
2017-11-06T07:55:03.805Z,101689.42
2017-11-06T07:57:39.336Z,101691.17
2017-11-06T08:00:13.989Z,101698.36
2017-11-06T08:02:49.237Z,101696.56
2017-11-06T08:05:24.191Z,101698.13
2017-11-06T08:07:59.112Z,101709.74
2017-11-06T08:10:33.572Z,101717.00
2017-11-06T08:13:08.567Z,101716.03
2017-11-06T08:15:43.440Z,101696.80
2017-11-06T08:18:18.738Z,101720.73
2017-11-06T08:20:53.785Z,101731.98
2017-11-06T08:23:28.713Z,101729.08
2017-11-06T08:26:03.944Z,101726.82
2017-11-06T08:28:39.080Z,101727.88
2017-11-06T08:31:13.877Z,101731.48
2017-11-06T08:33:48.776Z,101739.67
2017-11-06T08:36:23.804Z,101736.72
2017-11-06T08:38:58.607Z,101737.88
2017-11-06T08:41:33.737Z,101742.78
2017-11-06T08:44:08.961Z,101743.82
2017-11-06T08:46:44.232Z,101742.08
2017-11-06T08:49:19.260Z,101743.34
2017-11-06T08:51:54.316Z,101763.15
2017-11-06T08:54:29.430Z,101756.67
2017-11-06T08:57:03.956Z,101757.17
2017-11-06T08:59:38.380Z,101761.55
2017-11-06T09:02:13.512Z,101760.81
2017-11-06T09:04:47.967Z,101766.86
2017-11-06T09:07:22.400Z,101770.69
2017-11-06T09:09:57.671Z,101770.84
2017-11-06T09:12:32.905Z,101771.98
2017-11-06T09:15:07.951Z,101774.33
2017-11-06T09:17:42.403Z,101773.84
2017-11-06T09:20:17.061Z,101772.52
2017-11-06T09:22:52.367Z,101778.76
2017-11-06T09:25:27.616Z,101777.18
2017-11-06T09:28:02.715Z,101780.39
2017-11-06T09:30:37.273Z,101790.66
2017-11-06T09:33:11.797Z,101789.61
2017-11-06T09:35:46.843Z,101788.22
2017-11-06T09:38:21.786Z,101793.89
2017-11-06T09:40:57.060Z,101795.77
2017-11-06T09:43:31.519Z,101800.31
2017-11-06T09:46:06.756Z,101797.88
2017-11-06T09:48:41.896Z,101799.16
2017-11-06T09:51:16.791Z,101798.14
2017-11-06T09:53:51.824Z,101794.80
2017-11-06T09:56:26.920Z,101797.00
2017-11-06T09:59:01.980Z,101801.59
2017-11-06T10:01:37.007Z,101802.55
2017-11-06T10:04:11.967Z,101808.03
2017-11-06T10:06:46.964Z,101802.58
2017-11-06T10:09:21.768Z,101807.37
2017-11-06T10:11:56.725Z,101810.83
2017-11-06T10:14:31.646Z,101815.80
2017-11-06T10:17:06.755Z,101811.58
2017-11-06T10:19:41.512Z,101813.67
2017-11-06T10:22:16.288Z,101804.97
2017-11-06T10:24:51.187Z,101816.85
2017-11-06T10:27:26.308Z,101815.75
2017-11-06T10:30:01.121Z,101815.55
2017-11-06T10:32:35.856Z,101826.25
2017-11-06T10:35:10.564Z,101825.17
2017-11-06T10:37:45.892Z,101827.35
2017-11-06T10:40:20.371Z,101825.67
2017-11-06T10:42:55.219Z,101826.56
2017-11-06T10:45:29.701Z,101823.33
2017-11-06T10:48:04.351Z,101818.77
2017-11-06T10:50:39.347Z,101822.45
2017-11-06T10:53:14.686Z,101820.98
2017-11-06T10:55:49.232Z,101829.68
2017-11-06T10:58:24.036Z,101833.08
2017-11-06T11:00:58.951Z,101830.81
2017-11-06T11:03:33.592Z,101822.68
2017-11-06T11:06:07.785Z,101830.94
2017-11-06T11:08:43.144Z,101834.47
2017-11-06T11:11:18.058Z,101836.31
2017-11-06T11:13:52.596Z,101834.56
2017-11-06T11:16:27.640Z,101837.77
2017-11-06T11:19:02.211Z,101841.52
2017-11-06T11:21:37.312Z,101837.14
2017-11-06T11:24:11.691Z,101843.41
2017-11-06T11:26:47.008Z,101840.33
2017-11-06T11:29:21.075Z,101839.50
2017-11-06T11:31:55.944Z,101836.20
2017-11-06T11:34:30.128Z,101838.75
2017-11-06T11:37:05.149Z,101835.75
2017-11-06T11:39:39.585Z,101838.20
2017-11-06T11:42:14.176Z,101845.61
2017-11-06T11:44:49.285Z,101848.69
2017-11-06T11:47:24.055Z,101847.70
2017-11-06T11:49:58.869Z,101843.41
2017-11-06T11:52:33.616Z,101849.69
2017-11-06T11:55:08.547Z,101853.48
2017-11-06T11:57:43.671Z,101852.14
2017-11-06T12:00:18.408Z,101851.91
2017-11-06T12:02:53.400Z,101859.31
2017-11-06T12:05:28.325Z,101856.34
2017-11-06T12:08:03.371Z,101861.31
2017-11-06T12:10:38.420Z,101861.59
2017-11-06T12:13:13.700Z,101863.20
2017-11-06T12:15:49.224Z,101862.69
2017-11-06T12:18:24.047Z,101857.56
2017-11-06T12:20:59.011Z,101865.80
2017-11-06T12:23:34.008Z,101867.67
2017-11-06T12:26:09.020Z,101868.77
2017-11-06T12:28:43.765Z,101867.31
2017-11-06T12:31:18.663Z,101872.62
2017-11-06T12:33:53.653Z,101888.05
2017-11-06T12:36:28.127Z,101882.75
2017-11-06T12:39:03.064Z,101880.05
2017-11-06T12:41:38.159Z,101880.83
2017-11-06T12:44:13.318Z,101880.70
2017-11-06T12:46:48.211Z,101879.58
2017-11-06T12:49:23.216Z,101879.31
2017-11-06T12:51:58.020Z,101868.37
2017-11-06T12:54:32.719Z,101881.39
2017-11-06T12:57:07.666Z,101879.66
2017-11-06T12:59:42.658Z,101889.54
2017-11-06T13:02:17.203Z,101892.76
2017-11-06T13:04:52.164Z,101892.73
2017-11-06T13:07:26.995Z,101882.78
2017-11-06T13:10:02.592Z,101888.89
2017-11-06T13:12:37.478Z,101882.56
2017-11-06T13:15:12.327Z,101891.27
2017-11-06T13:17:47.327Z,101892.94
2017-11-06T13:20:22.252Z,101897.22
2017-11-06T13:22:57.268Z,101897.36
2017-11-06T13:25:32.315Z,101903.51
2017-11-06T13:28:07.376Z,101906.91
2017-11-06T13:30:42.415Z,101909.97
2017-11-06T13:33:17.471Z,101907.42
2017-11-06T13:35:52.276Z,101911.05
2017-11-06T13:38:27.284Z,101910.98
2017-11-06T13:41:02.213Z,101921.02
2017-11-06T13:43:37.084Z,101919.56
2017-11-06T13:46:11.948Z,101920.53
2017-11-06T13:48:46.804Z,101924.22
2017-11-06T13:51:21.931Z,101922.28
2017-11-06T13:53:56.780Z,101931.07
2017-11-06T13:56:31.532Z,101934.50
2017-11-06T13:59:06.284Z,101935.75
2017-11-06T14:01:41.345Z,101938.77
2017-11-06T14:04:15.904Z,101940.60
2017-11-06T14:06:50.772Z,101942.95
2017-11-06T14:09:25.708Z,101948.16
2017-11-06T14:12:00.512Z,101948.87
2017-11-06T14:14:35.236Z,101955.51
2017-11-06T14:17:10.131Z,101956.56
2017-11-06T14:19:44.944Z,101954.69
2017-11-06T14:22:19.823Z,101960.13
2017-11-06T14:24:54.695Z,101963.46
2017-11-06T14:27:29.422Z,101963.15
2017-11-06T14:30:06.384Z,101966.36
2017-11-06T14:32:41.148Z,101975.14
2017-11-06T14:35:15.956Z,101975.50
2017-11-06T14:37:50.987Z,101971.52
2017-11-06T14:40:25.916Z,101977.58
2017-11-06T14:43:00.644Z,101982.59
2017-11-06T14:45:35.544Z,101980.23
2017-11-06T14:48:10.072Z,101979.24
2017-11-06T14:50:45.063Z,101987.72
2017-11-06T14:53:20.140Z,101985.06
2017-11-06T14:55:54.976Z,101990.02
2017-11-06T14:58:29.910Z,101988.94
2017-11-06T15:01:04.455Z,101992.28
2017-11-06T15:03:39.289Z,101980.51
2017-11-06T15:06:13.891Z,101994.11
2017-11-06T15:08:49.076Z,101994.38
2017-11-06T15:11:24.200Z,101988.55
2017-11-06T15:13:59.155Z,102001.91
2017-11-06T15:16:33.951Z,102006.86
2017-11-06T15:19:09.060Z,102000.86
2017-11-06T15:21:43.559Z,102007.16
2017-11-06T15:24:18.195Z,102007.17
2017-11-06T15:26:53.250Z,102009.90
2017-11-06T15:29:28.347Z,102004.66
2017-11-06T15:32:03.247Z,102015.40
2017-11-06T15:34:38.051Z,102022.23
2017-11-06T15:37:12.963Z,102017.56
2017-11-06T15:39:47.813Z,102024.52
2017-11-06T15:42:22.689Z,102020.16
2017-11-06T15:44:57.420Z,102022.03
2017-11-06T15:47:32.339Z,102029.84
2017-11-06T15:50:07.248Z,102030.25
2017-11-06T15:52:42.000Z,102022.84
2017-11-06T15:55:17.088Z,102039.48
2017-11-06T15:57:52.041Z,102034.88
2017-11-06T16:00:27.083Z,102032.68
2017-11-06T16:03:02.076Z,102037.96
2017-11-06T16:05:36.975Z,102045.58
2017-11-06T16:08:11.888Z,102039.84
2017-11-06T16:10:46.556Z,102051.72
2017-11-06T16:13:21.552Z,102055.12
2017-11-06T16:15:56.627Z,102060.06
2017-11-06T16:18:31.640Z,102059.89
2017-11-06T16:21:06.511Z,102067.64
2017-11-06T16:23:41.716Z,102069.11
2017-11-06T16:26:16.919Z,102066.08
2017-11-06T16:28:52.080Z,102066.73
2017-11-06T16:31:26.876Z,102073.47
2017-11-06T16:34:01.839Z,102071.73
2017-11-06T16:36:36.866Z,102075.51
2017-11-06T16:39:11.871Z,102072.97
2017-11-06T16:41:46.963Z,102070.83
2017-11-06T16:44:21.975Z,102079.86
2017-11-06T16:46:57.043Z,102080.80
2017-11-06T16:49:31.944Z,102079.56
2017-11-06T16:52:07.685Z,102078.06
2017-11-06T16:54:42.767Z,102087.53
2017-11-06T16:57:17.933Z,102081.30
2017-11-06T16:59:52.527Z,102086.53
2017-11-06T17:02:27.853Z,102093.36
2017-11-06T17:05:03.156Z,102082.38
2017-11-06T17:07:38.232Z,102085.19
2017-11-06T17:10:13.264Z,102095.43
2017-11-06T17:12:48.116Z,102094.48
2017-11-06T17:15:22.840Z,102097.34
2017-11-06T17:17:58.007Z,102100.87
2017-11-06T17:20:32.999Z,102103.32
2017-11-06T17:23:08.028Z,102104.33
2017-11-06T17:25:43.177Z,102098.34
2017-11-06T17:28:18.343Z,102106.90
2017-11-06T17:30:53.468Z,102105.48
2017-11-06T17:33:28.396Z,102108.31
2017-11-06T17:36:03.124Z,102105.86
2017-11-06T17:38:38.256Z,102112.53
2017-11-06T17:41:13.310Z,102106.48
2017-11-06T17:43:48.264Z,102112.02
2017-11-06T17:46:23.154Z,102113.64
2017-11-06T17:48:58.108Z,102104.69
2017-11-06T17:51:33.461Z,102115.75
2017-11-06T17:54:08.700Z,102119.56
2017-11-06T17:56:44.647Z,102123.28
2017-11-06T17:59:19.539Z,102120.91
2017-11-06T18:01:54.363Z,102122.70
2017-11-06T18:04:29.575Z,102142.48
2017-11-06T18:07:04.691Z,102137.82
2017-11-06T18:09:39.607Z,102143.73
2017-11-06T18:12:14.807Z,102141.98
2017-11-06T18:14:49.833Z,102149.33
2017-11-06T18:17:24.955Z,102143.41
2017-11-06T18:19:59.857Z,102147.37
2017-11-06T18:22:34.699Z,102152.95
2017-11-06T18:25:10.000Z,102151.38
2017-11-06T18:27:44.619Z,102149.56
2017-11-06T18:30:19.859Z,102154.95
2017-11-06T18:32:54.766Z,102153.04
2017-11-06T18:35:29.741Z,102158.74
2017-11-06T18:38:03.915Z,102161.80
2017-11-06T18:40:39.191Z,102165.73
2017-11-06T18:43:14.902Z,102171.70
2017-11-06T18:45:49.676Z,102177.25
2017-11-06T18:48:24.076Z,102176.23
2017-11-06T18:50:59.228Z,102172.28
2017-11-06T18:53:34.284Z,102172.89
2017-11-06T18:56:09.192Z,102173.00
2017-11-06T18:58:45.089Z,102176.21
2017-11-06T19:01:19.972Z,102173.72
2017-11-06T19:03:55.116Z,102176.55
2017-11-06T19:06:29.756Z,102181.55
2017-11-06T19:09:04.148Z,102181.22
2017-11-06T19:11:38.806Z,102179.58
2017-11-06T19:14:13.604Z,102180.93
2017-11-06T19:16:48.569Z,102182.91
2017-11-06T19:19:23.459Z,102185.20
2017-11-06T19:21:58.608Z,102196.37
2017-11-06T19:24:33.723Z,102197.17
2017-11-06T19:27:08.739Z,102198.17
2017-11-06T19:29:43.677Z,102198.21
2017-11-06T19:32:18.709Z,102184.05
2017-11-06T19:34:54.665Z,102195.75
2017-11-06T19:37:29.692Z,102198.42
2017-11-06T19:40:04.388Z,102198.77
2017-11-06T19:42:39.631Z,102197.45
2017-11-06T19:45:14.696Z,102209.09
2017-11-06T19:47:49.832Z,102213.14
2017-11-06T19:50:24.247Z,102214.62
2017-11-06T19:52:59.267Z,102222.78
2017-11-06T19:55:34.360Z,102220.75
2017-11-06T19:58:08.732Z,102226.23
2017-11-06T20:00:43.592Z,102220.03
2017-11-06T20:03:18.123Z,102230.77
2017-11-06T20:05:53.168Z,102227.58
2017-11-06T20:08:28.212Z,102229.16
2017-11-06T20:11:03.128Z,102226.86
2017-11-06T20:13:38.324Z,102225.14
2017-11-06T20:16:13.315Z,102236.42
2017-11-06T20:18:48.251Z,102239.60
2017-11-06T20:21:23.343Z,102242.30
2017-11-06T20:23:58.308Z,102236.95
2017-11-06T20:26:32.679Z,102252.47
2017-11-06T20:29:07.451Z,102248.89
2017-11-06T20:31:42.231Z,102242.24
2017-11-06T20:34:17.512Z,102246.67
2017-11-06T20:36:51.936Z,102246.60
2017-11-06T20:39:26.447Z,102246.19
2017-11-06T20:42:01.716Z,102246.70
2017-11-06T20:44:36.535Z,102254.83
2017-11-06T20:47:11.016Z,102254.06
2017-11-06T20:49:45.859Z,102260.37
2017-11-06T20:52:20.684Z,102259.41
2017-11-06T20:54:55.872Z,102253.78
2017-11-06T20:57:30.912Z,102259.66
2017-11-06T21:00:06.171Z,102264.12
2017-11-06T21:02:41.467Z,102261.89
2017-11-06T21:05:16.567Z,102262.97
2017-11-06T21:07:51.751Z,102276.80
2017-11-06T21:10:28.120Z,102275.81
2017-11-06T21:13:03.459Z,102270.74
2017-11-06T21:15:38.614Z,102270.44
2017-11-06T21:18:13.760Z,102267.14
2017-11-06T21:20:48.103Z,102274.38
2017-11-06T21:23:23.495Z,102277.62
2017-11-06T21:25:58.537Z,102272.81
2017-11-06T21:31:18.660Z,102274.28
2017-11-06T21:33:53.609Z,102277.13
2017-11-06T21:36:28.240Z,102280.80
2017-11-06T21:39:03.084Z,102278.65
2017-11-06T21:41:38.104Z,102284.58
2017-11-06T21:44:12.952Z,102290.36
2017-11-06T21:46:48.140Z,102283.66
2017-11-06T21:49:23.153Z,102286.33
2017-11-06T21:51:57.920Z,102286.89
2017-11-06T21:54:32.719Z,102286.94
2017-11-06T21:57:07.548Z,102288.72
2017-11-06T21:59:42.699Z,102289.70
2017-11-06T22:02:17.341Z,102286.89
2017-11-06T22:04:52.460Z,102295.67
2017-11-06T22:07:27.602Z,102292.53
2017-11-06T22:10:02.741Z,102285.85
2017-11-06T22:12:37.731Z,102291.70
2017-11-06T22:15:12.815Z,102294.84
2017-11-06T22:17:47.740Z,102285.73
2017-11-06T22:20:22.971Z,102282.29
2017-11-06T22:22:57.872Z,102280.16
2017-11-06T22:25:32.879Z,102281.52
2017-11-06T22:28:07.923Z,102285.29
2017-11-06T22:30:42.448Z,102283.26
2017-11-06T22:33:17.507Z,102282.50
2017-11-06T22:35:52.688Z,102281.66
2017-11-06T22:38:27.613Z,102285.35
2017-11-06T22:41:02.360Z,102280.06
2017-11-06T22:43:37.217Z,102270.05
2017-11-06T22:46:11.964Z,102282.34
2017-11-06T22:48:46.756Z,102292.25
2017-11-06T22:51:22.190Z,102285.72
2017-11-06T22:53:56.988Z,102288.02
2017-11-06T22:56:31.747Z,102290.30
2017-11-06T22:59:06.692Z,102289.90
2017-11-06T23:01:41.823Z,102283.75
2017-11-06T23:04:16.748Z,102282.92
2017-11-06T23:06:52.081Z,102273.29
2017-11-06T23:09:26.933Z,102277.34
2017-11-06T23:12:02.059Z,102274.27
2017-11-06T23:14:36.916Z,102269.05
2017-11-06T23:17:11.820Z,102270.45
2017-11-06T23:19:46.911Z,102272.28
2017-11-06T23:22:21.936Z,102274.21
2017-11-06T23:24:56.580Z,102274.03
2017-11-06T23:27:31.584Z,102274.30
2017-11-06T23:30:06.804Z,102274.94
2017-11-06T23:32:41.335Z,102270.17
2017-11-06T23:35:17.004Z,102263.17
2017-11-06T23:37:52.026Z,102263.12
2017-11-06T23:40:26.976Z,102255.56
2017-11-06T23:43:02.111Z,102255.78
2017-11-06T23:45:36.831Z,102254.56
2017-11-06T23:48:11.940Z,102258.14
2017-11-06T23:50:46.595Z,102261.38
2017-11-06T23:53:21.328Z,102258.00
2017-11-06T23:55:55.880Z,102252.34
2017-11-06T23:58:30.968Z,102240.47
